sensor_id;sensor_type;location;lat;lon;timestamp;P1;durP1;ratioP1;P2;durP2;ratioP2
15002;SDS011;7597;53.590;10.020;2023-04-03T01:19:35;6.47;;;3.50;;
15002;SDS011;7597;53.590;10.020;2023-04-03T01:22:10;7.80;;;3.25;;
15002;SDS011;7597;53.590;10.020;2023-04-03T01:24:35;7.62;;;3.37;;
15002;SDS011;7597;53.590;10.020;2023-04-03T01:27:04;7.97;;;3.35;;
15002;SDS011;7597;53.590;10.020;2023-04-03T01:29:31;7.10;;;3.53;;
15002;SDS011;7597;53.590;10.020;2023-04-03T01:32:00;5.40;;;3.28;;
15002;SDS011;7597;53.590;10.020;2023-04-03T01:34:27;9.10;;;3.15;;
15002;SDS011;7597;53.590;10.020;2023-04-03T01:36:55;7.45;;;3.70;;
15002;SDS011;7597;53.590;10.020;2023-04-03T01:39:23;8.73;;;3.55;;
15002;SDS011;7597;53.590;10.020;2023-04-03T01:41:52;9.07;;;3.40;;
15002;SDS011;7597;53.590;10.020;2023-04-03T01:44:21;9.15;;;3.40;;
15002;SDS011;7597;53.590;10.020;2023-04-03T01:46:50;7.55;;;3.33;;
15002;SDS011;7597;53.590;10.020;2023-04-03T01:49:18;7.62;;;3.45;;
15002;SDS011;7597;53.590;10.020;2023-04-03T01:51:46;7.65;;;3.58;;
15002;SDS011;7597;53.590;10.020;2023-04-03T01:54:14;7.13;;;3.20;;
15002;SDS011;7597;53.590;10.020;2023-04-03T01:56:42;7.68;;;3.53;;
15002;SDS011;7597;53.590;10.020;2023-04-03T01:59:10;7.47;;;3.35;;
15002;SDS011;7597;53.590;10.020;2023-04-03T02:01:38;6.72;;;3.20;;
15002;SDS011;7597;53.590;10.020;2023-04-03T02:04:07;7.93;;;3.40;;
15002;SDS011;7597;53.590;10.020;2023-04-03T02:06:35;7.47;;;3.50;;
15002;SDS011;7597;53.590;10.020;2023-04-03T02:09:03;7.82;;;3.40;;
15002;SDS011;7597;53.590;10.020;2023-04-03T02:11:31;8.48;;;3.47;;
15002;SDS011;7597;53.590;10.020;2023-04-03T02:13:59;9.00;;;3.62;;
15002;SDS011;7597;53.590;10.020;2023-04-03T02:16:27;8.27;;;3.65;;
15002;SDS011;7597;53.590;10.020;2023-04-03T02:18:56;7.95;;;3.40;;
15002;SDS011;7597;53.590;10.020;2023-04-03T02:21:24;10.48;;;3.65;;
15002;SDS011;7597;53.590;10.020;2023-04-03T02:23:52;8.77;;;3.75;;
15002;SDS011;7597;53.590;10.020;2023-04-03T02:26:20;7.40;;;3.50;;
15002;SDS011;7597;53.590;10.020;2023-04-03T02:28:48;8.85;;;3.53;;
15002;SDS011;7597;53.590;10.020;2023-04-03T02:31:16;6.77;;;3.50;;
15002;SDS011;7597;53.590;10.020;2023-04-03T02:33:44;7.37;;;3.60;;
15002;SDS011;7597;53.590;10.020;2023-04-03T02:36:12;8.00;;;3.60;;
15002;SDS011;7597;53.590;10.020;2023-04-03T02:38:41;8.32;;;3.75;;
15002;SDS011;7597;53.590;10.020;2023-04-03T02:41:10;9.25;;;3.58;;
15002;SDS011;7597;53.590;10.020;2023-04-03T02:43:37;7.78;;;3.62;;
15002;SDS011;7597;53.590;10.020;2023-04-03T02:46:05;6.72;;;3.10;;
15002;SDS011;7597;53.590;10.020;2023-04-03T02:48:34;8.15;;;3.60;;
15002;SDS011;7597;53.590;10.020;2023-04-03T02:51:02;6.18;;;3.12;;
15002;SDS011;7597;53.590;10.020;2023-04-03T02:53:30;9.45;;;3.72;;
15002;SDS011;7597;53.590;10.020;2023-04-03T02:56:00;7.00;;;3.47;;
15002;SDS011;7597;53.590;10.020;2023-04-03T02:58:28;9.07;;;3.17;;
15002;SDS011;7597;53.590;10.020;2023-04-03T03:00:57;7.60;;;3.37;;
15002;SDS011;7597;53.590;10.020;2023-04-03T03:03:25;9.95;;;3.65;;
15002;SDS011;7597;53.590;10.020;2023-04-03T03:06:11;6.70;;;3.30;;
15002;SDS011;7597;53.590;10.020;2023-04-03T03:08:39;7.85;;;3.50;;
15002;SDS011;7597;53.590;10.020;2023-04-03T03:11:07;6.03;;;3.25;;
15002;SDS011;7597;53.590;10.020;2023-04-03T03:13:35;5.97;;;3.33;;
15002;SDS011;7597;53.590;10.020;2023-04-03T03:16:03;7.78;;;3.60;;
15002;SDS011;7597;53.590;10.020;2023-04-03T03:18:31;7.85;;;3.85;;
15002;SDS011;7597;53.590;10.020;2023-04-03T03:20:59;9.73;;;3.70;;
15002;SDS011;7597;53.590;10.020;2023-04-03T03:23:28;7.53;;;3.20;;
15002;SDS011;7597;53.590;10.020;2023-04-03T03:25:56;10.45;;;3.37;;
15002;SDS011;7597;53.590;10.020;2023-04-03T03:28:24;7.07;;;3.33;;
15002;SDS011;7597;53.590;10.020;2023-04-03T03:30:52;6.85;;;3.17;;
15002;SDS011;7597;53.590;10.020;2023-04-03T03:33:20;7.00;;;3.45;;
15002;SDS011;7597;53.590;10.020;2023-04-03T03:35:48;8.07;;;3.85;;
15002;SDS011;7597;53.590;10.020;2023-04-03T03:38:16;7.53;;;3.03;;
15002;SDS011;7597;53.590;10.020;2023-04-03T03:40:44;9.40;;;3.78;;
15002;SDS011;7597;53.590;10.020;2023-04-03T03:43:12;9.15;;;3.65;;
15002;SDS011;7597;53.590;10.020;2023-04-03T03:45:40;8.60;;;3.60;;
15002;SDS011;7597;53.590;10.020;2023-04-03T03:48:09;7.30;;;3.50;;
15002;SDS011;7597;53.590;10.020;2023-04-03T03:50:37;7.93;;;3.45;;
15002;SDS011;7597;53.590;10.020;2023-04-03T03:53:05;11.40;;;3.67;;
15002;SDS011;7597;53.590;10.020;2023-04-03T03:55:33;7.68;;;3.45;;
15002;SDS011;7597;53.590;10.020;2023-04-03T03:58:01;9.00;;;3.45;;
15002;SDS011;7597;53.590;10.020;2023-04-03T04:00:29;8.80;;;3.33;;
15002;SDS011;7597;53.590;10.020;2023-04-03T04:02:58;8.57;;;3.62;;
15002;SDS011;7597;53.590;10.020;2023-04-03T04:05:26;5.70;;;3.10;;
15002;SDS011;7597;53.590;10.020;2023-04-03T04:07:54;6.85;;;3.40;;
15002;SDS011;7597;53.590;10.020;2023-04-03T04:10:23;8.68;;;3.70;;
15002;SDS011;7597;53.590;10.020;2023-04-03T04:12:51;0.73;;;0.43;;
15002;SDS011;7597;53.590;10.020;2023-04-03T04:15:19;7.55;;;3.60;;
15002;SDS011;7597;53.590;10.020;2023-04-03T04:17:47;0.20;;;0.20;;
15002;SDS011;7597;53.590;10.020;2023-04-03T04:20:16;0.30;;;0.30;;
15002;SDS011;7597;53.590;10.020;2023-04-03T04:22:44;0.00;;;0.00;;
15002;SDS011;7597;53.590;10.020;2023-04-03T04:25:12;0.00;;;0.00;;
15002;SDS011;7597;53.590;10.020;2023-04-03T04:27:41;0.00;;;0.00;;
15002;SDS011;7597;53.590;10.020;2023-04-03T04:30:09;0.00;;;0.00;;
15002;SDS011;7597;53.590;10.020;2023-04-03T04:32:41;0.00;;;0.00;;
15002;SDS011;7597;53.590;10.020;2023-04-03T04:35:09;0.00;;;0.00;;
15002;SDS011;7597;53.590;10.020;2023-04-03T04:37:37;0.00;;;0.00;;
15002;SDS011;7597;53.590;10.020;2023-04-03T04:40:06;0.00;;;0.00;;
15002;SDS011;7597;53.590;10.020;2023-04-03T04:42:34;0.00;;;0.00;;
15002;SDS011;7597;53.590;10.020;2023-04-03T04:45:03;0.00;;;0.00;;
15002;SDS011;7597;53.590;10.020;2023-04-03T04:47:31;0.00;;;0.00;;
15002;SDS011;7597;53.590;10.020;2023-04-03T04:49:59;0.00;;;0.00;;
15002;SDS011;7597;53.590;10.020;2023-04-03T04:52:27;0.00;;;0.00;;
15002;SDS011;7597;53.590;10.020;2023-04-03T04:54:55;0.00;;;0.00;;
15002;SDS011;7597;53.590;10.020;2023-04-03T04:57:23;0.00;;;0.00;;
15002;SDS011;7597;53.590;10.020;2023-04-03T04:59:51;0.00;;;0.00;;
15002;SDS011;7597;53.590;10.020;2023-04-03T05:02:20;0.00;;;0.00;;
15002;SDS011;7597;53.590;10.020;2023-04-03T05:04:48;0.00;;;0.00;;
15002;SDS011;7597;53.590;10.020;2023-04-03T05:07:17;0.00;;;0.00;;
15002;SDS011;7597;53.590;10.020;2023-04-03T05:09:45;0.10;;;0.10;;
15002;SDS011;7597;53.590;10.020;2023-04-03T05:12:13;0.00;;;0.00;;
15002;SDS011;7597;53.590;10.020;2023-04-03T05:14:41;0.00;;;0.00;;
15002;SDS011;7597;53.590;10.020;2023-04-03T05:17:09;0.00;;;0.00;;
15002;SDS011;7597;53.590;10.020;2023-04-03T05:19:38;0.00;;;0.00;;
15002;SDS011;7597;53.590;10.020;2023-04-03T05:22:06;0.00;;;0.00;;
15002;SDS011;7597;53.590;10.020;2023-04-03T05:24:34;0.00;;;0.00;;
15002;SDS011;7597;53.590;10.020;2023-04-03T05:27:02;0.00;;;0.00;;
15002;SDS011;7597;53.590;10.020;2023-04-03T05:29:30;0.00;;;0.00;;
15002;SDS011;7597;53.590;10.020;2023-04-03T05:31:58;0.00;;;0.00;;
15002;SDS011;7597;53.590;10.020;2023-04-03T05:34:27;0.00;;;0.00;;
15002;SDS011;7597;53.590;10.020;2023-04-03T05:36:55;0.00;;;0.00;;
15002;SDS011;7597;53.590;10.020;2023-04-03T05:39:24;0.00;;;0.00;;
15002;SDS011;7597;53.590;10.020;2023-04-03T05:41:52;0.00;;;0.00;;
15002;SDS011;7597;53.590;10.020;2023-04-03T05:44:20;0.00;;;0.00;;
15002;SDS011;7597;53.590;10.020;2023-04-03T05:46:49;0.00;;;0.00;;
15002;SDS011;7597;53.590;10.020;2023-04-03T05:49:18;0.10;;;0.10;;
15002;SDS011;7597;53.590;10.020;2023-04-03T05:51:47;0.00;;;0.00;;
15002;SDS011;7597;53.590;10.020;2023-04-03T05:54:17;0.00;;;0.00;;
15002;SDS011;7597;53.590;10.020;2023-04-03T05:56:44;0.00;;;0.00;;
15002;SDS011;7597;53.590;10.020;2023-04-03T05:59:13;0.00;;;0.00;;
15002;SDS011;7597;53.590;10.020;2023-04-03T06:01:42;0.00;;;0.00;;
15002;SDS011;7597;53.590;10.020;2023-04-03T06:04:10;0.00;;;0.00;;
15002;SDS011;7597;53.590;10.020;2023-04-03T06:06:44;0.00;;;0.00;;
15002;SDS011;7597;53.590;10.020;2023-04-03T06:09:11;0.00;;;0.00;;
15002;SDS011;7597;53.590;10.020;2023-04-03T06:11:39;0.00;;;0.00;;
15002;SDS011;7597;53.590;10.020;2023-04-03T06:14:08;0.00;;;0.00;;
15002;SDS011;7597;53.590;10.020;2023-04-03T06:16:36;0.00;;;0.00;;
15002;SDS011;7597;53.590;10.020;2023-04-03T06:19:04;0.00;;;0.00;;
15002;SDS011;7597;53.590;10.020;2023-04-03T06:21:32;0.00;;;0.00;;
15002;SDS011;7597;53.590;10.020;2023-04-03T13:59:34;0.27;;;0.20;;
15002;SDS011;7597;53.590;10.020;2023-04-03T14:02:11;0.20;;;0.10;;
15002;SDS011;7597;53.590;10.020;2023-04-03T14:04:54;0.10;;;0.05;;
15002;SDS011;7597;53.590;10.020;2023-04-03T14:07:20;0.00;;;0.00;;
15002;SDS011;7597;53.590;10.020;2023-04-03T14:09:48;0.00;;;0.00;;
15002;SDS011;7597;53.590;10.020;2023-04-03T14:12:26;0.20;;;0.20;;
15002;SDS011;7597;53.590;10.020;2023-04-03T14:14:49;0.00;;;0.00;;
15002;SDS011;7597;53.590;10.020;2023-04-03T14:17:18;0.85;;;0.25;;
15002;SDS011;7597;53.590;10.020;2023-04-03T14:19:45;0.30;;;0.30;;
15002;SDS011;7597;53.590;10.020;2023-04-03T14:24:49;2.35;;;0.55;;
15002;SDS011;7597;53.590;10.020;2023-04-03T14:27:21;0.00;;;0.00;;
